sensor_id;sensor_type;location;lat;lon;timestamp;temperature;humidity
5011;DHT22;2524;54.364;10.072;2023-01-05T00:02:12;9.10;99.90
5011;DHT22;2524;54.364;10.072;2023-01-05T00:04:37;9.10;99.90
5011;DHT22;2524;54.364;10.072;2023-01-05T00:07:03;8.90;99.90
5011;DHT22;2524;54.364;10.072;2023-01-05T00:09:28;8.90;99.90
5011;DHT22;2524;54.364;10.072;2023-01-05T00:11:54;8.90;99.90
5011;DHT22;2524;54.364;10.072;2023-01-05T00:14:38;8.90;99.90
5011;DHT22;2524;54.364;10.072;2023-01-05T00:17:24;8.90;99.90
5011;DHT22;2524;54.364;10.072;2023-01-05T00:20:16;8.90;99.90
5011;DHT22;2524;54.364;10.072;2023-01-05T00:23:01;8.90;99.90
5011;DHT22;2524;54.364;10.072;2023-01-05T00:25:29;8.90;99.90
5011;DHT22;2524;54.364;10.072;2023-01-05T00:27:55;8.90;99.90
5011;DHT22;2524;54.364;10.072;2023-01-05T00:30:28;8.80;99.90
5011;DHT22;2524;54.364;10.072;2023-01-05T00:32:54;8.80;99.90
5011;DHT22;2524;54.364;10.072;2023-01-05T00:35:20;8.80;99.90
5011;DHT22;2524;54.364;10.072;2023-01-05T00:37:46;8.80;99.90
5011;DHT22;2524;54.364;10.072;2023-01-05T00:40:14;8.80;99.90
5011;DHT22;2524;54.364;10.072;2023-01-05T00:42:40;8.80;99.90
5011;DHT22;2524;54.364;10.072;2023-01-05T00:45:08;8.80;99.90
5011;DHT22;2524;54.364;10.072;2023-01-05T00:47:34;8.70;99.90
5011;DHT22;2524;54.364;10.072;2023-01-05T00:50:00;8.80;99.90
5011;DHT22;2524;54.364;10.072;2023-01-05T00:52:25;8.80;99.90
5011;DHT22;2524;54.364;10.072;2023-01-05T00:54:51;8.80;99.90
5011;DHT22;2524;54.364;10.072;2023-01-05T00:57:17;8.70;99.90
5011;DHT22;2524;54.364;10.072;2023-01-05T00:59:42;8.80;99.90
5011;DHT22;2524;54.364;10.072;2023-01-05T01:02:08;8.70;99.90
5011;DHT22;2524;54.364;10.072;2023-01-05T01:04:34;8.70;99.90
5011;DHT22;2524;54.364;10.072;2023-01-05T01:07:01;8.70;99.90
5011;DHT22;2524;54.364;10.072;2023-01-05T01:09:27;8.80;99.90
5011;DHT22;2524;54.364;10.072;2023-01-05T01:11:53;8.70;99.90
5011;DHT22;2524;54.364;10.072;2023-01-05T01:14:19;8.70;99.90
5011;DHT22;2524;54.364;10.072;2023-01-05T01:16:44;8.70;99.90
5011;DHT22;2524;54.364;10.072;2023-01-05T01:19:15;8.70;99.90
5011;DHT22;2524;54.364;10.072;2023-01-05T01:21:41;8.70;99.90
5011;DHT22;2524;54.364;10.072;2023-01-05T01:24:07;8.80;99.90
5011;DHT22;2524;54.364;10.072;2023-01-05T01:26:33;8.70;99.90
5011;DHT22;2524;54.364;10.072;2023-01-05T01:28:59;8.70;99.90
5011;DHT22;2524;54.364;10.072;2023-01-05T01:31:24;8.70;99.90
5011;DHT22;2524;54.364;10.072;2023-01-05T01:33:50;8.70;99.90
5011;DHT22;2524;54.364;10.072;2023-01-05T01:36:16;8.80;99.90
5011;DHT22;2524;54.364;10.072;2023-01-05T01:38:41;8.80;99.90
5011;DHT22;2524;54.364;10.072;2023-01-05T01:41:07;8.70;99.90
5011;DHT22;2524;54.364;10.072;2023-01-05T01:43:48;8.70;99.90
5011;DHT22;2524;54.364;10.072;2023-01-05T01:46:15;8.70;99.90
5011;DHT22;2524;54.364;10.072;2023-01-05T01:49:02;8.70;99.90
5011;DHT22;2524;54.364;10.072;2023-01-05T01:51:35;8.70;99.90
5011;DHT22;2524;54.364;10.072;2023-01-05T01:54:06;8.60;99.90
5011;DHT22;2524;54.364;10.072;2023-01-05T01:56:37;8.70;99.90
5011;DHT22;2524;54.364;10.072;2023-01-05T01:59:04;8.60;99.90
5011;DHT22;2524;54.364;10.072;2023-01-05T02:01:30;8.60;99.90
5011;DHT22;2524;54.364;10.072;2023-01-05T02:03:56;8.60;99.90
5011;DHT22;2524;54.364;10.072;2023-01-05T02:06:22;8.60;99.90
5011;DHT22;2524;54.364;10.072;2023-01-05T02:08:48;8.60;99.90
5011;DHT22;2524;54.364;10.072;2023-01-05T02:14:17;8.60;99.90
5011;DHT22;2524;54.364;10.072;2023-01-05T02:20:07;8.60;99.90
5011;DHT22;2524;54.364;10.072;2023-01-05T02:30:50;8.60;99.90
5011;DHT22;2524;54.364;10.072;2023-01-05T02:33:30;8.60;99.90
5011;DHT22;2524;54.364;10.072;2023-01-05T02:38:56;8.60;99.90
5011;DHT22;2524;54.364;10.072;2023-01-05T02:41:28;8.60;99.90
5011;DHT22;2524;54.364;10.072;2023-01-05T02:43:56;8.60;99.90
5011;DHT22;2524;54.364;10.072;2023-01-05T02:46:22;8.60;99.90
5011;DHT22;2524;54.364;10.072;2023-01-05T02:48:50;8.60;99.90
5011;DHT22;2524;54.364;10.072;2023-01-05T02:51:39;8.60;99.90
5011;DHT22;2524;54.364;10.072;2023-01-05T02:56:41;8.60;99.90
5011;DHT22;2524;54.364;10.072;2023-01-05T02:59:30;8.60;99.90
5011;DHT22;2524;54.364;10.072;2023-01-05T03:02:02;8.50;99.90
5011;DHT22;2524;54.364;10.072;2023-01-05T03:04:43;8.50;99.90
5011;DHT22;2524;54.364;10.072;2023-01-05T03:07:12;8.60;99.90
5011;DHT22;2524;54.364;10.072;2023-01-05T03:09:40;8.50;99.90
5011;DHT22;2524;54.364;10.072;2023-01-05T03:15:19;8.60;99.90
5011;DHT22;2524;54.364;10.072;2023-01-05T03:17:53;8.60;99.90
5011;DHT22;2524;54.364;10.072;2023-01-05T03:20:28;8.60;99.90
5011;DHT22;2524;54.364;10.072;2023-01-05T03:22:55;8.60;99.90
5011;DHT22;2524;54.364;10.072;2023-01-05T03:25:40;8.60;99.90
5011;DHT22;2524;54.364;10.072;2023-01-05T03:28:32;8.50;99.90
5011;DHT22;2524;54.364;10.072;2023-01-05T03:31:32;8.50;99.90
5011;DHT22;2524;54.364;10.072;2023-01-05T03:34:31;8.50;99.90
5011;DHT22;2524;54.364;10.072;2023-01-05T03:37:23;8.50;99.90
5011;DHT22;2524;54.364;10.072;2023-01-05T03:39:50;8.50;99.90
5011;DHT22;2524;54.364;10.072;2023-01-05T03:42:16;8.60;99.90
5011;DHT22;2524;54.364;10.072;2023-01-05T03:44:44;8.60;99.90
5011;DHT22;2524;54.364;10.072;2023-01-05T03:47:11;8.50;99.90
5011;DHT22;2524;54.364;10.072;2023-01-05T03:49:37;8.60;99.90
5011;DHT22;2524;54.364;10.072;2023-01-05T03:52:03;8.60;99.90
5011;DHT22;2524;54.364;10.072;2023-01-05T03:54:29;8.60;99.90
5011;DHT22;2524;54.364;10.072;2023-01-05T03:56:57;8.60;99.90
5011;DHT22;2524;54.364;10.072;2023-01-05T03:59:23;8.60;99.90
5011;DHT22;2524;54.364;10.072;2023-01-05T04:01:48;8.60;99.90
5011;DHT22;2524;54.364;10.072;2023-01-05T04:04:14;8.60;99.90
5011;DHT22;2524;54.364;10.072;2023-01-05T04:06:39;8.60;99.90
5011;DHT22;2524;54.364;10.072;2023-01-05T04:09:05;8.60;99.90
5011;DHT22;2524;54.364;10.072;2023-01-05T04:11:31;8.60;99.90
5011;DHT22;2524;54.364;10.072;2023-01-05T04:13:56;8.60;99.90
5011;DHT22;2524;54.364;10.072;2023-01-05T04:16:22;8.60;99.90
5011;DHT22;2524;54.364;10.072;2023-01-05T04:18:48;8.60;99.90
5011;DHT22;2524;54.364;10.072;2023-01-05T04:21:13;8.60;99.90
5011;DHT22;2524;54.364;10.072;2023-01-05T04:23:39;8.50;99.90
5011;DHT22;2524;54.364;10.072;2023-01-05T04:26:05;8.60;99.90
5011;DHT22;2524;54.364;10.072;2023-01-05T04:28:30;8.60;99.90
5011;DHT22;2524;54.364;10.072;2023-01-05T04:30:56;8.60;99.90
5011;DHT22;2524;54.364;10.072;2023-01-05T04:33:27;8.50;99.90
5011;DHT22;2524;54.364;10.072;2023-01-05T04:36:06;8.50;99.90
5011;DHT22;2524;54.364;10.072;2023-01-05T04:38:32;8.60;99.90
5011;DHT22;2524;54.364;10.072;2023-01-05T04:40:58;8.50;99.90
5011;DHT22;2524;54.364;10.072;2023-01-05T04:43:23;8.50;99.90
5011;DHT22;2524;54.364;10.072;2023-01-05T04:45:49;8.50;99.90
5011;DHT22;2524;54.364;10.072;2023-01-05T04:48:15;8.50;99.90
5011;DHT22;2524;54.364;10.072;2023-01-05T04:50:41;8.50;99.90
5011;DHT22;2524;54.364;10.072;2023-01-05T04:53:07;8.50;99.90
5011;DHT22;2524;54.364;10.072;2023-01-05T04:55:33;8.60;99.90
5011;DHT22;2524;54.364;10.072;2023-01-05T04:57:58;8.50;99.90
5011;DHT22;2524;54.364;10.072;2023-01-05T05:00:24;8.60;99.90
5011;DHT22;2524;54.364;10.072;2023-01-05T05:02:49;8.50;99.90
5011;DHT22;2524;54.364;10.072;2023-01-05T05:05:15;8.50;99.90
5011;DHT22;2524;54.364;10.072;2023-01-05T05:07:41;8.50;99.90
5011;DHT22;2524;54.364;10.072;2023-01-05T05:10:07;8.50;99.90
5011;DHT22;2524;54.364;10.072;2023-01-05T05:12:33;8.50;99.90
5011;DHT22;2524;54.364;10.072;2023-01-05T05:14:59;8.50;99.90
5011;DHT22;2524;54.364;10.072;2023-01-05T05:17:24;8.50;99.90
5011;DHT22;2524;54.364;10.072;2023-01-05T05:19:50;8.50;99.90
5011;DHT22;2524;54.364;10.072;2023-01-05T05:22:15;8.50;99.90
5011;DHT22;2524;54.364;10.072;2023-01-05T05:24:41;8.50;99.90
5011;DHT22;2524;54.364;10.072;2023-01-05T05:27:06;8.40;99.90
5011;DHT22;2524;54.364;10.072;2023-01-05T05:29:32;8.50;99.90
5011;DHT22;2524;54.364;10.072;2023-01-05T05:31:57;8.40;99.90
5011;DHT22;2524;54.364;10.072;2023-01-05T05:34:23;8.40;99.90
5011;DHT22;2524;54.364;10.072;2023-01-05T05:36:49;8.40;99.90
5011;DHT22;2524;54.364;10.072;2023-01-05T05:39:15;8.50;99.90
5011;DHT22;2524;54.364;10.072;2023-01-05T05:41:40;8.50;99.90
5011;DHT22;2524;54.364;10.072;2023-01-05T05:44:07;8.50;99.90
5011;DHT22;2524;54.364;10.072;2023-01-05T05:46:33;8.50;99.90
5011;DHT22;2524;54.364;10.072;2023-01-05T05:48:59;8.50;99.90
5011;DHT22;2524;54.364;10.072;2023-01-05T05:51:25;8.50;99.90
5011;DHT22;2524;54.364;10.072;2023-01-05T05:53:51;8.50;99.90
5011;DHT22;2524;54.364;10.072;2023-01-05T05:56:17;8.60;99.90
5011;DHT22;2524;54.364;10.072;2023-01-05T05:58:43;8.60;99.90
5011;DHT22;2524;54.364;10.072;2023-01-05T06:01:09;8.60;99.90
5011;DHT22;2524;54.364;10.072;2023-01-05T06:03:35;8.60;99.90
5011;DHT22;2524;54.364;10.072;2023-01-05T06:06:02;8.60;99.90
5011;DHT22;2524;54.364;10.072;2023-01-05T06:08:28;8.60;99.90
5011;DHT22;2524;54.364;10.072;2023-01-05T06:10:55;8.70;99.90
5011;DHT22;2524;54.364;10.072;2023-01-05T06:13:21;8.60;99.90
5011;DHT22;2524;54.364;10.072;2023-01-05T06:15:47;8.60;99.90
5011;DHT22;2524;54.364;10.072;2023-01-05T06:18:13;8.70;99.90
5011;DHT22;2524;54.364;10.072;2023-01-05T06:20:39;8.70;99.90
5011;DHT22;2524;54.364;10.072;2023-01-05T06:23:05;8.70;99.90
5011;DHT22;2524;54.364;10.072;2023-01-05T06:25:31;8.70;99.90
5011;DHT22;2524;54.364;10.072;2023-01-05T06:27:57;8.70;99.90
5011;DHT22;2524;54.364;10.072;2023-01-05T06:30:22;8.80;99.90
5011;DHT22;2524;54.364;10.072;2023-01-05T06:32:48;8.70;99.90
5011;DHT22;2524;54.364;10.072;2023-01-05T06:35:14;8.70;99.90
5011;DHT22;2524;54.364;10.072;2023-01-05T06:37:49;8.70;99.90
5011;DHT22;2524;54.364;10.072;2023-01-05T06:40:14;8.70;99.90
5011;DHT22;2524;54.364;10.072;2023-01-05T06:42:41;8.70;99.90
5011;DHT22;2524;54.364;10.072;2023-01-05T06:45:08;8.60;99.90
5011;DHT22;2524;54.364;10.072;2023-01-05T06:47:34;8.60;99.90
5011;DHT22;2524;54.364;10.072;2023-01-05T06:50:00;8.50;99.90
5011;DHT22;2524;54.364;10.072;2023-01-05T06:52:26;8.50;99.90
5011;DHT22;2524;54.364;10.072;2023-01-05T06:54:51;8.50;99.90
5011;DHT22;2524;54.364;10.072;2023-01-05T06:57:17;8.30;99.90
5011;DHT22;2524;54.364;10.072;2023-01-05T06:59:43;8.30;99.90
5011;DHT22;2524;54.364;10.072;2023-01-05T07:02:15;8.20;99.90
5011;DHT22;2524;54.364;10.072;2023-01-05T07:04:41;8.10;99.90
5011;DHT22;2524;54.364;10.072;2023-01-05T07:07:10;8.00;99.90
5011;DHT22;2524;54.364;10.072;2023-01-05T07:09:36;8.00;99.90
5011;DHT22;2524;54.364;10.072;2023-01-05T07:12:02;7.90;99.90
5011;DHT22;2524;54.364;10.072;2023-01-05T07:14:27;7.80;99.90
5011;DHT22;2524;54.364;10.072;2023-01-05T07:16:53;7.70;99.90
5011;DHT22;2524;54.364;10.072;2023-01-05T07:19:18;7.60;99.90
5011;DHT22;2524;54.364;10.072;2023-01-05T07:21:44;7.50;99.90
5011;DHT22;2524;54.364;10.072;2023-01-05T07:24:09;7.50;99.90
5011;DHT22;2524;54.364;10.072;2023-01-05T07:26:35;7.40;99.90
5011;DHT22;2524;54.364;10.072;2023-01-05T07:29:01;7.30;99.90
5011;DHT22;2524;54.364;10.072;2023-01-05T07:31:26;7.20;99.90
5011;DHT22;2524;54.364;10.072;2023-01-05T07:33:52;7.10;99.90
5011;DHT22;2524;54.364;10.072;2023-01-05T07:36:17;7.00;99.90
5011;DHT22;2524;54.364;10.072;2023-01-05T07:38:43;7.00;99.90
5011;DHT22;2524;54.364;10.072;2023-01-05T07:41:08;6.90;99.90
5011;DHT22;2524;54.364;10.072;2023-01-05T07:43:34;6.90;99.90
5011;DHT22;2524;54.364;10.072;2023-01-05T07:46:01;6.90;99.90
5011;DHT22;2524;54.364;10.072;2023-01-05T07:48:28;6.80;99.90
5011;DHT22;2524;54.364;10.072;2023-01-05T07:50:59;6.80;99.90
5011;DHT22;2524;54.364;10.072;2023-01-05T07:53:26;6.80;99.90
5011;DHT22;2524;54.364;10.072;2023-01-05T07:55:59;6.80;99.90
5011;DHT22;2524;54.364;10.072;2023-01-05T07:58:26;6.70;99.90
5011;DHT22;2524;54.364;10.072;2023-01-05T08:00:53;6.70;99.90
5011;DHT22;2524;54.364;10.072;2023-01-05T08:03:18;6.70;99.90
5011;DHT22;2524;54.364;10.072;2023-01-05T08:05:46;6.70;99.90
5011;DHT22;2524;54.364;10.072;2023-01-05T08:08:12;6.60;99.90
5011;DHT22;2524;54.364;10.072;2023-01-05T08:10:39;6.50;99.90
5011;DHT22;2524;54.364;10.072;2023-01-05T08:13:07;6.50;99.90
5011;DHT22;2524;54.364;10.072;2023-01-05T08:15:52;6.50;99.90
5011;DHT22;2524;54.364;10.072;2023-01-05T08:18:18;6.50;99.90
5011;DHT22;2524;54.364;10.072;2023-01-05T08:20:55;6.40;99.90
5011;DHT22;2524;54.364;10.072;2023-01-05T08:23:22;6.40;99.90
5011;DHT22;2524;54.364;10.072;2023-01-05T08:25:48;6.30;99.90
5011;DHT22;2524;54.364;10.072;2023-01-05T08:28:14;6.30;99.90
5011;DHT22;2524;54.364;10.072;2023-01-05T08:30:39;6.20;99.90
5011;DHT22;2524;54.364;10.072;2023-01-05T08:33:05;6.20;99.90
5011;DHT22;2524;54.364;10.072;2023-01-05T08:35:31;6.10;99.90
5011;DHT22;2524;54.364;10.072;2023-01-05T08:37:56;6.10;99.90
5011;DHT22;2524;54.364;10.072;2023-01-05T08:40:22;6.10;99.90
5011;DHT22;2524;54.364;10.072;2023-01-05T08:42:50;6.10;99.90
5011;DHT22;2524;54.364;10.072;2023-01-05T08:45:17;6.10;99.90
5011;DHT22;2524;54.364;10.072;2023-01-05T08:47:45;6.00;99.90
5011;DHT22;2524;54.364;10.072;2023-01-05T08:50:10;6.00;99.90
5011;DHT22;2524;54.364;10.072;2023-01-05T08:52:37;6.00;99.90
5011;DHT22;2524;54.364;10.072;2023-01-05T08:55:04;6.00;99.90
5011;DHT22;2524;54.364;10.072;2023-01-05T08:57:30;5.90;99.90
5011;DHT22;2524;54.364;10.072;2023-01-05T08:59:55;5.90;99.90
5011;DHT22;2524;54.364;10.072;2023-01-05T09:02:21;5.90;99.90
5011;DHT22;2524;54.364;10.072;2023-01-05T09:04:46;5.90;99.90
5011;DHT22;2524;54.364;10.072;2023-01-05T09:07:12;6.00;99.90
5011;DHT22;2524;54.364;10.072;2023-01-05T09:09:38;6.00;99.90
5011;DHT22;2524;54.364;10.072;2023-01-05T09:12:03;6.00;99.90
5011;DHT22;2524;54.364;10.072;2023-01-05T09:14:29;6.00;99.90
5011;DHT22;2524;54.364;10.072;2023-01-05T09:16:55;5.90;99.90
5011;DHT22;2524;54.364;10.072;2023-01-05T09:19:20;6.00;99.90
5011;DHT22;2524;54.364;10.072;2023-01-05T09:22:01;6.00;99.90
5011;DHT22;2524;54.364;10.072;2023-01-05T09:24:27;6.00;99.90
5011;DHT22;2524;54.364;10.072;2023-01-05T09:26:53;6.00;99.90
5011;DHT22;2524;54.364;10.072;2023-01-05T09:29:18;6.00;99.90
5011;DHT22;2524;54.364;10.072;2023-01-05T09:31:44;6.00;99.90
5011;DHT22;2524;54.364;10.072;2023-01-05T09:34:10;6.00;99.90
5011;DHT22;2524;54.364;10.072;2023-01-05T09:36:36;6.00;99.90
5011;DHT22;2524;54.364;10.072;2023-01-05T09:39:04;6.00;99.90
5011;DHT22;2524;54.364;10.072;2023-01-05T09:41:34;6.00;99.90
5011;DHT22;2524;54.364;10.072;2023-01-05T09:44:34;6.00;99.90
5011;DHT22;2524;54.364;10.072;2023-01-05T09:49:48;6.00;99.90
5011;DHT22;2524;54.364;10.072;2023-01-05T09:52:14;6.00;99.90
5011;DHT22;2524;54.364;10.072;2023-01-05T09:54:42;6.00;99.90
5011;DHT22;2524;54.364;10.072;2023-01-05T09:57:22;6.10;99.90
5011;DHT22;2524;54.364;10.072;2023-01-05T09:59:59;6.20;99.90
5011;DHT22;2524;54.364;10.072;2023-01-05T10:05:12;6.10;99.90
5011;DHT22;2524;54.364;10.072;2023-01-05T10:07:45;6.20;99.90
5011;DHT22;2524;54.364;10.072;2023-01-05T10:10:25;6.10;99.90
5011;DHT22;2524;54.364;10.072;2023-01-05T10:12:52;6.20;99.90
5011;DHT22;2524;54.364;10.072;2023-01-05T10:15:41;6.20;99.90
5011;DHT22;2524;54.364;10.072;2023-01-05T10:18:16;6.20;99.90
5011;DHT22;2524;54.364;10.072;2023-01-05T10:26:49;6.20;99.90
5011;DHT22;2524;54.364;10.072;2023-01-05T10:29:39;6.20;99.90
5011;DHT22;2524;54.364;10.072;2023-01-05T10:32:28;6.20;99.90
5011;DHT22;2524;54.364;10.072;2023-01-05T10:35:00;6.30;99.90
5011;DHT22;2524;54.364;10.072;2023-01-05T10:38:03;6.30;99.90
5011;DHT22;2524;54.364;10.072;2023-01-05T10:45:51;6.30;99.90
5011;DHT22;2524;54.364;10.072;2023-01-05T10:48:18;6.40;99.90
5011;DHT22;2524;54.364;10.072;2023-01-05T10:50:45;6.40;99.90
5011;DHT22;2524;54.364;10.072;2023-01-05T10:53:18;6.40;99.90
5011;DHT22;2524;54.364;10.072;2023-01-05T10:56:25;6.40;99.90
5011;DHT22;2524;54.364;10.072;2023-01-05T10:59:12;6.40;99.90
5011;DHT22;2524;54.364;10.072;2023-01-05T11:01:46;6.40;99.90
5011;DHT22;2524;54.364;10.072;2023-01-05T11:04:16;6.50;99.90
5011;DHT22;2524;54.364;10.072;2023-01-05T11:06:43;6.60;99.90
5011;DHT22;2524;54.364;10.072;2023-01-05T11:09:22;6.50;99.90
5011;DHT22;2524;54.364;10.072;2023-01-05T11:14:57;6.60;99.90
5011;DHT22;2524;54.364;10.072;2023-01-05T11:17:24;6.60;99.90
5011;DHT22;2524;54.364;10.072;2023-01-05T11:19:53;6.70;99.90
5011;DHT22;2524;54.364;10.072;2023-01-05T11:22:35;6.70;99.90
5011;DHT22;2524;54.364;10.072;2023-01-05T11:32:15;6.70;99.90
5011;DHT22;2524;54.364;10.072;2023-01-05T11:35:02;6.70;99.90
5011;DHT22;2524;54.364;10.072;2023-01-05T11:37:28;6.70;99.90
5011;DHT22;2524;54.364;10.072;2023-01-05T11:40:02;6.70;99.90
5011;DHT22;2524;54.364;10.072;2023-01-05T11:42:33;6.70;99.90
5011;DHT22;2524;54.364;10.072;2023-01-05T11:45:22;6.70;99.90
5011;DHT22;2524;54.364;10.072;2023-01-05T11:47:52;6.70;99.90
5011;DHT22;2524;54.364;10.072;2023-01-05T11:52:56;6.70;99.90
5011;DHT22;2524;54.364;10.072;2023-01-05T11:55:35;6.70;99.90
5011;DHT22;2524;54.364;10.072;2023-01-05T11:58:27;6.70;99.90
5011;DHT22;2524;54.364;10.072;2023-01-05T12:06:10;6.70;99.90
5011;DHT22;2524;54.364;10.072;2023-01-05T12:09:47;6.70;99.90
5011;DHT22;2524;54.364;10.072;2023-01-05T12:11:55;6.70;99.90
5011;DHT22;2524;54.364;10.072;2023-01-05T12:14:40;6.70;99.90
5011;DHT22;2524;54.364;10.072;2023-01-05T12:17:13;6.70;99.90
5011;DHT22;2524;54.364;10.072;2023-01-05T12:27:49;6.70;99.90
5011;DHT22;2524;54.364;10.072;2023-01-05T12:30:43;6.60;99.90
5011;DHT22;2524;54.364;10.072;2023-01-05T12:33:29;6.70;99.90
5011;DHT22;2524;54.364;10.072;2023-01-05T12:49:27;6.60;99.90
5011;DHT22;2524;54.364;10.072;2023-01-05T12:52:39;6.60;99.90
5011;DHT22;2524;54.364;10.072;2023-01-05T12:55:28;6.60;99.90
5011;DHT22;2524;54.364;10.072;2023-01-05T12:58:00;6.60;99.90
5011;DHT22;2524;54.364;10.072;2023-01-05T13:00:49;6.60;99.90
5011;DHT22;2524;54.364;10.072;2023-01-05T13:03:26;6.50;99.90
5011;DHT22;2524;54.364;10.072;2023-01-05T13:06:14;6.60;99.90
5011;DHT22;2524;54.364;10.072;2023-01-05T13:09:11;6.60;99.90
5011;DHT22;2524;54.364;10.072;2023-01-05T13:11:57;6.70;99.90
5011;DHT22;2524;54.364;10.072;2023-01-05T13:14:53;6.60;99.90
5011;DHT22;2524;54.364;10.072;2023-01-05T13:17:29;6.60;99.90
5011;DHT22;2524;54.364;10.072;2023-01-05T13:23:16;6.80;99.90
5011;DHT22;2524;54.364;10.072;2023-01-05T13:26:22;6.90;99.90
5011;DHT22;2524;54.364;10.072;2023-01-05T13:28:42;7.10;99.90
5011;DHT22;2524;54.364;10.072;2023-01-05T13:34:29;7.80;99.90
5011;DHT22;2524;54.364;10.072;2023-01-05T13:39:53;8.60;99.90
5011;DHT22;2524;54.364;10.072;2023-01-05T13:53:11;8.90;99.90
5011;DHT22;2524;54.364;10.072;2023-01-05T13:55:46;8.60;99.90
5011;DHT22;2524;54.364;10.072;2023-01-05T13:58:32;8.40;99.90
5011;DHT22;2524;54.364;10.072;2023-01-05T14:00:59;8.10;99.90
5011;DHT22;2524;54.364;10.072;2023-01-05T14:03:28;7.90;99.90
5011;DHT22;2524;54.364;10.072;2023-01-05T14:05:59;7.80;99.90
5011;DHT22;2524;54.364;10.072;2023-01-05T14:08:33;7.90;99.90
5011;DHT22;2524;54.364;10.072;2023-01-05T14:11:17;8.00;99.90
5011;DHT22;2524;54.364;10.072;2023-01-05T14:13:46;8.20;99.90
5011;DHT22;2524;54.364;10.072;2023-01-05T14:16:45;8.30;99.90
5011;DHT22;2524;54.364;10.072;2023-01-05T14:22:31;8.20;99.90
5011;DHT22;2524;54.364;10.072;2023-01-05T14:24:48;8.10;99.90
5011;DHT22;2524;54.364;10.072;2023-01-05T14:27:22;7.90;99.90
5011;DHT22;2524;54.364;10.072;2023-01-05T14:32:34;7.60;99.90
5011;DHT22;2524;54.364;10.072;2023-01-05T14:37:40;7.30;99.90
5011;DHT22;2524;54.364;10.072;2023-01-05T14:40:37;7.20;99.90
5011;DHT22;2524;54.364;10.072;2023-01-05T14:46:09;7.00;99.90
5011;DHT22;2524;54.364;10.072;2023-01-05T14:48:39;6.90;99.90
5011;DHT22;2524;54.364;10.072;2023-01-05T14:51:13;6.80;99.90
5011;DHT22;2524;54.364;10.072;2023-01-05T14:53:42;6.80;99.90
5011;DHT22;2524;54.364;10.072;2023-01-05T16:31:21;6.50;99.90
5011;DHT22;2524;54.364;10.072;2023-01-05T16:34:01;6.50;99.90
5011;DHT22;2524;54.364;10.072;2023-01-05T16:36:27;6.60;99.90
5011;DHT22;2524;54.364;10.072;2023-01-05T16:39:19;6.50;99.90
5011;DHT22;2524;54.364;10.072;2023-01-05T16:41:46;6.50;99.90
5011;DHT22;2524;54.364;10.072;2023-01-05T16:44:30;6.40;99.90
5011;DHT22;2524;54.364;10.072;2023-01-05T16:47:08;6.40;99.90
5011;DHT22;2524;54.364;10.072;2023-01-05T16:49:36;6.40;99.90
5011;DHT22;2524;54.364;10.072;2023-01-05T16:52:06;6.30;99.90
5011;DHT22;2524;54.364;10.072;2023-01-05T16:54:35;6.30;99.90
5011;DHT22;2524;54.364;10.072;2023-01-05T16:57:11;6.20;99.90
5011;DHT22;2524;54.364;10.072;2023-01-05T16:59:53;6.20;99.90
5011;DHT22;2524;54.364;10.072;2023-01-05T17:02:47;6.20;99.90
5011;DHT22;2524;54.364;10.072;2023-01-05T17:05:16;6.10;99.90
5011;DHT22;2524;54.364;10.072;2023-01-05T17:07:46;6.00;99.90
5011;DHT22;2524;54.364;10.072;2023-01-05T17:10:31;6.00;99.90
5011;DHT22;2524;54.364;10.072;2023-01-05T17:13:16;6.00;99.90
5011;DHT22;2524;54.364;10.072;2023-01-05T17:15:45;6.00;99.90
5011;DHT22;2524;54.364;10.072;2023-01-05T17:18:20;6.00;99.90
5011;DHT22;2524;54.364;10.072;2023-01-05T17:20:46;5.90;99.90
5011;DHT22;2524;54.364;10.072;2023-01-05T17:23:24;5.90;99.90
5011;DHT22;2524;54.364;10.072;2023-01-05T17:25:52;5.80;99.90
5011;DHT22;2524;54.364;10.072;2023-01-05T17:28:20;5.80;99.90
5011;DHT22;2524;54.364;10.072;2023-01-05T17:30:49;5.90;99.90
5011;DHT22;2524;54.364;10.072;2023-01-05T17:33:14;5.90;99.90
5011;DHT22;2524;54.364;10.072;2023-01-05T17:35:40;5.80;99.90
5011;DHT22;2524;54.364;10.072;2023-01-05T17:38:05;5.90;99.90
5011;DHT22;2524;54.364;10.072;2023-01-05T17:40:31;5.80;99.90
5011;DHT22;2524;54.364;10.072;2023-01-05T17:42:57;5.80;99.90
5011;DHT22;2524;54.364;10.072;2023-01-05T17:45:24;5.80;99.90
5011;DHT22;2524;54.364;10.072;2023-01-05T17:47:52;5.80;99.90
5011;DHT22;2524;54.364;10.072;2023-01-05T17:50:22;5.80;99.90
5011;DHT22;2524;54.364;10.072;2023-01-05T17:52:48;5.80;99.90
5011;DHT22;2524;54.364;10.072;2023-01-05T17:55:14;5.80;99.90
5011;DHT22;2524;54.364;10.072;2023-01-05T17:57:40;5.80;99.90
5011;DHT22;2524;54.364;10.072;2023-01-05T18:00:09;5.70;99.90
5011;DHT22;2524;54.364;10.072;2023-01-05T18:02:35;5.70;99.90
5011;DHT22;2524;54.364;10.072;2023-01-05T18:05:01;5.70;99.90
5011;DHT22;2524;54.364;10.072;2023-01-05T18:07:29;5.70;99.90
5011;DHT22;2524;54.364;10.072;2023-01-05T18:09:56;5.80;99.90
5011;DHT22;2524;54.364;10.072;2023-01-05T18:12:22;5.60;99.90
5011;DHT22;2524;54.364;10.072;2023-01-05T18:14:47;5.70;99.90
5011;DHT22;2524;54.364;10.072;2023-01-05T18:17:13;5.60;99.90
5011;DHT22;2524;54.364;10.072;2023-01-05T18:19:41;5.60;99.90
5011;DHT22;2524;54.364;10.072;2023-01-05T18:22:10;5.70;99.90
5011;DHT22;2524;54.364;10.072;2023-01-05T18:24:41;5.60;99.90
5011;DHT22;2524;54.364;10.072;2023-01-05T18:27:47;5.60;99.90
5011;DHT22;2524;54.364;10.072;2023-01-05T18:30:58;5.60;99.90
5011;DHT22;2524;54.364;10.072;2023-01-05T18:33:53;5.60;99.90
5011;DHT22;2524;54.364;10.072;2023-01-05T18:36:43;5.50;99.90
5011;DHT22;2524;54.364;10.072;2023-01-05T18:39:41;5.60;99.90
5011;DHT22;2524;54.364;10.072;2023-01-05T18:43:04;5.60;99.90
5011;DHT22;2524;54.364;10.072;2023-01-05T18:45:30;5.60;99.90
5011;DHT22;2524;54.364;10.072;2023-01-05T18:48:17;5.60;99.90
5011;DHT22;2524;54.364;10.072;2023-01-05T18:51:09;5.60;99.90
5011;DHT22;2524;54.364;10.072;2023-01-05T18:53:43;5.70;99.90
5011;DHT22;2524;54.364;10.072;2023-01-05T18:56:39;5.60;99.90
5011;DHT22;2524;54.364;10.072;2023-01-05T18:59:30;5.70;99.90
5011;DHT22;2524;54.364;10.072;2023-01-05T19:01:56;5.70;99.90
5011;DHT22;2524;54.364;10.072;2023-01-05T19:04:22;5.70;99.90
5011;DHT22;2524;54.364;10.072;2023-01-05T19:06:54;5.80;99.90
5011;DHT22;2524;54.364;10.072;2023-01-05T19:09:26;5.70;99.90
5011;DHT22;2524;54.364;10.072;2023-01-05T19:11:52;5.70;99.90
5011;DHT22;2524;54.364;10.072;2023-01-05T19:14:19;5.70;99.90
5011;DHT22;2524;54.364;10.072;2023-01-05T19:16:50;5.70;99.90
5011;DHT22;2524;54.364;10.072;2023-01-05T19:19:16;5.70;99.90
5011;DHT22;2524;54.364;10.072;2023-01-05T19:21:44;5.70;99.90
5011;DHT22;2524;54.364;10.072;2023-01-05T19:24:17;5.80;99.90
5011;DHT22;2524;54.364;10.072;2023-01-05T19:26:44;5.80;99.90
5011;DHT22;2524;54.364;10.072;2023-01-05T19:29:11;5.80;99.90
5011;DHT22;2524;54.364;10.072;2023-01-05T19:31:37;5.80;99.90
5011;DHT22;2524;54.364;10.072;2023-01-05T19:34:03;5.80;99.90
5011;DHT22;2524;54.364;10.072;2023-01-05T19:36:30;5.80;99.90
5011;DHT22;2524;54.364;10.072;2023-01-05T19:39:26;5.80;99.90
5011;DHT22;2524;54.364;10.072;2023-01-05T19:41:52;5.80;99.90
5011;DHT22;2524;54.364;10.072;2023-01-05T19:44:19;5.90;99.90
5011;DHT22;2524;54.364;10.072;2023-01-05T19:46:46;5.80;99.90
5011;DHT22;2524;54.364;10.072;2023-01-05T19:49:18;5.80;99.90
5011;DHT22;2524;54.364;10.072;2023-01-05T19:51:44;5.80;99.90
5011;DHT22;2524;54.364;10.072;2023-01-05T19:54:11;5.80;99.90
5011;DHT22;2524;54.364;10.072;2023-01-05T19:56:37;5.80;99.90